Time;durP1;ratioP1;P1;durP2;ratioP2;P2;SDS_P1;SDS_P2;PMS_P1;PMS_P2;Temp;Humidity;BMP_temperature;BMP_pressure;BME280_temperature;BME280_humidity;BME280_pressure;Samples;Min_cycle;Max_cycle;Signal;HPM_P1;HPM_P2
2023/01/27 00:01:34;;;;;;;;;;;;;;;;;;7369131;19;822;-74
2023/01/27 00:04:03;;;;;;;;;;;;;;;;;;7369742;19;865;-74
2023/01/27 00:06:36;;;;;;;;;;;;;;;;;;7366736;19;1369;-74
2023/01/27 00:09:04;;;;;;;;;;;;;;;;;;7370400;19;1641;-74
2023/01/27 00:14:13;;;;;;;;;;;;;;;;;;7367465;19;847;-75
2023/01/27 00:16:41;;;;;;;;;;;;;;;;;;7365179;19;1350;-73
2023/01/27 00:19:09;;;;;;;;;;;;;;;;;;7367574;19;1855;-74
2023/01/27 00:26:58;;;;;;;;;;;;;;;;;;7366948;19;871;-73
2023/01/27 00:29:27;;;;;;;;;;;;;;;;;;7370254;19;1403;-73
2023/01/27 00:34:35;;;;;;;;;;;;;;;;;;7371715;19;1433;-72
2023/01/27 00:37:05;;;;;;;;;;;;;;;;;;7370554;19;1642;-73
2023/01/27 00:39:34;;;;;;;;;;;;;;;;;;7367570;19;1838;-73
2023/01/27 00:42:02;;;;;;;;;;;;;;;;;;7367420;19;814;-72
2023/01/27 00:44:31;;;;;;;;;;;;;;;;;;7367313;19;1228;-73
2023/01/27 00:46:59;;;;;;;;;;;;;;;;;;7366936;19;803;-73
2023/01/27 00:49:27;;;;;;;;;;;;;;;;;;7367369;19;1623;-73
2023/01/27 00:51:56;;;;;;;;;;;;;;;;;;7367926;19;807;-74
2023/01/27 00:54:24;;;;;;;;;;;;;;;;;;7366425;19;1279;-74
2023/01/27 00:56:52;;;;;;;;;;;;;;;;;;7366390;19;851;-74
2023/01/27 00:59:21;;;;;;;;;;;;;;;;;;7366159;19;1862;-75
2023/01/27 01:01:50;;;;;;;;;;;;;;;;;;7367251;19;907;-74
2023/01/27 01:04:18;;;;;;;;;;;;;;;;;;7365663;19;1272;-74
2023/01/27 01:06:47;;;;;;;;;;;;;;;;;;7366135;19;845;-73
2023/01/27 01:09:15;;;;;;;;;;;;;;;;;;7369435;19;1871;-73
2023/01/27 01:11:44;;;;;;;;;;;;;;;;;;7367679;19;838;-74
2023/01/27 01:14:12;;;;;;;;;;;;;;;;;;7368535;19;812;-73
2023/01/27 01:16:40;;;;;;;;;;;;;;;;;;7365460;19;1322;-73
2023/01/27 01:19:08;;;;;;;;;;;;;;;;;;7365902;19;1806;-73
2023/01/27 01:21:36;;;;;;;;;;;;;;;;;;7368636;19;788;-74
2023/01/27 01:24:05;;;;;;;;;;;;;;;;;;7367598;19;846;-76
2023/01/27 01:26:33;;;;;;;;;;;;;;;;;;7366699;19;1385;-74
2023/01/27 01:29:01;;;;;;;;;;;;;;;;;;7371690;19;811;-73
2023/01/27 01:31:29;;;;;;;;;;;;;;;;;;7377812;19;1621;-73
2023/01/27 01:33:57;;;;;;;;;;;;;;;;;;7373959;19;857;-74
2023/01/27 01:36:25;;;;;;;;;;;;;;;;;;7371934;19;1294;-73
2023/01/27 01:38:54;;;;;;;;;;;;;;;;;;7372672;19;786;-73
2023/01/27 01:41:22;;;;;;;;;;;;;;;;;;7369657;19;1834;-73
2023/01/27 01:43:50;;;;;;;;;;;;;;;;;;7374031;19;806;-73
2023/01/27 01:46:18;;;;;;;;;;;;;;;;;;7374290;19;1394;-73
2023/01/27 01:48:48;;;;;;;;;;;;;;;;;;7373000;19;1822;-73
2023/01/27 01:51:16;;;;;;;;;;;;;;;;;;7371693;19;1450;-73
2023/01/27 01:53:44;;;;;;;;;;;;;;;;;;7371135;19;866;-73
2023/01/27 01:56:13;;;;;;;;;;;;;;;;;;7371145;19;1267;-74
2023/01/27 01:58:41;;;;;;;;;;;;;;;;;;7371584;19;787;-73
2023/01/27 02:01:09;;;;;;;;;;;;;;;;;;7372022;19;1834;-73
2023/01/27 02:03:37;;;;;;;;;;;;;;;;;;7371527;19;811;-73
2023/01/27 02:06:07;;;;;;;;;;;;;;;;;;7369650;19;1323;-72
2023/01/27 02:08:35;;;;;;;;;;;;;;;;;;7371557;19;810;-73
2023/01/27 02:11:03;;;;;;;;;;;;;;;;;;7372412;19;831;-73
2023/01/27 02:13:31;;;;;;;;;;;;;;;;;;7372913;19;845;-73
2023/01/27 02:15:59;;;;;;;;;;;;;;;;;;7369301;19;1342;-73
2023/01/27 02:18:28;;;;;;;;;;;;;;;;;;7374948;19;1639;-72
2023/01/27 02:20:58;;;;;;;;;;;;;;;;;;7369201;19;1853;-73
2023/01/27 02:23:26;;;;;;;;;;;;;;;;;;7370494;19;802;-73
2023/01/27 02:25:56;;;;;;;;;;;;;;;;;;7369957;19;1255;-72
2023/01/27 02:28:24;;;;;;;;;;;;;;;;;;7370567;19;1542;-73
2023/01/27 02:30:52;;;;;;;;;;;;;;;;;;7371798;19;812;-73
2023/01/27 02:33:21;;;;;;;;;;;;;;;;;;7370629;19;780;-73
2023/01/27 02:35:50;;;;;;;;;;;;;;;;;;7370611;19;1240;-73
2023/01/27 02:38:18;;;;;;;;;;;;;;;;;;7371619;19;1608;-73
2023/01/27 02:40:46;;;;;;;;;;;;;;;;;;7373433;19;1837;-73
2023/01/27 02:43:14;;;;;;;;;;;;;;;;;;7369792;19;795;-73
2023/01/27 02:45:43;;;;;;;;;;;;;;;;;;7369286;19;1554;-72
2023/01/27 02:48:11;;;;;;;;;;;;;;;;;;7371061;19;860;-73
2023/01/27 02:50:39;;;;;;;;;;;;;;;;;;7369568;19;819;-72
2023/01/27 02:53:08;;;;;;;;;;;;;;;;;;7370095;19;818;-73
2023/01/27 02:55:37;;;;;;;;;;;;;;;;;;7369308;19;1286;-73
2023/01/27 02:58:06;;;;;;;;;;;;;;;;;;7371285;19;764;-74
2023/01/27 03:00:47;;;;;;;;;;;;;;;;;;7376653;19;2305;-72
2023/01/27 03:03:15;;;;;;;;;;;;;;;;;;7385750;19;849;-73
2023/01/27 03:05:44;;;;;;;;;;;;;;;;;;7386055;19;1360;-72
2023/01/27 03:08:12;;;;;;;;;;;;;;;;;;7385937;19;939;-73
2023/01/27 03:10:40;;;;;;;;;;;;;;;;;;7387854;19;796;-73
2023/01/27 03:13:08;;;;;;;;;;;;;;;;;;7386036;19;816;-73
2023/01/27 03:18:21;;;;;;;;;;;;;;;;;;7387572;19;1491;-73
2023/01/27 03:20:51;;;;;;;;;;;;;;;;;;7383132;19;1846;-73
2023/01/27 03:23:19;;;;;;;;;;;;;;;;;;7385744;19;1507;-73
2023/01/27 03:25:51;;;;;;;;;;;;;;;;;;7382029;19;1383;-73
2023/01/27 03:28:19;;;;;;;;;;;;;;;;;;7381893;19;752;-73
2023/01/27 03:31:04;;;;;;;;;;;;;;;;;;7369441;19;796;-74
2023/01/27 03:33:44;;;;;;;;;;;;;;;;;;7369153;19;611;-74
2023/01/27 03:47:22;;;;;;;;;;;;;;;;;;7370071;19;765;-73
2023/01/27 03:49:51;;;;;;;;;;;;;;;;;;7367527;19;1767;-73
2023/01/27 03:52:19;;;;;;;;;;;;;;;;;;7369515;19;812;-74
2023/01/27 03:54:47;;;;;;;;;;;;;;;;;;7368023;19;1282;-74
2023/01/27 03:57:16;;;;;;;;;;;;;;;;;;7369284;19;772;-74
2023/01/27 03:59:44;;;;;;;;;;;;;;;;;;7371049;19;1842;-74
2023/01/27 04:07:33;;;;;;;;;;;;;;;;;;7368674;19;780;-74
2023/01/27 04:10:02;;;;;;;;;;;;;;;;;;7371983;19;1490;-75
2023/01/27 04:12:27;;;;;;;;;;;;;;;;;;7367292;19;822;-74
2023/01/27 04:14:56;;;;;;;;;;;;;;;;;;7367043;19;1373;-74
2023/01/27 04:17:24;;;;;;;;;;;;;;;;;;7368582;19;807;-73
2023/01/27 04:19:53;;;;;;;;;;;;;;;;;;7370791;19;1849;-74
2023/01/27 04:22:21;;;;;;;;;;;;;;;;;;7368702;19;811;-73
2023/01/27 04:24:49;;;;;;;;;;;;;;;;;;7367595;19;1353;-74
2023/01/27 04:27:19;;;;;;;;;;;;;;;;;;7368755;19;851;-73
2023/01/27 04:29:47;;;;;;;;;;;;;;;;;;7369681;19;1722;-74
2023/01/27 04:32:15;;;;;;;;;;;;;;;;;;7369289;19;866;-73
2023/01/27 04:34:43;;;;;;;;;;;;;;;;;;7367567;19;1259;-74
2023/01/27 04:37:11;;;;;;;;;;;;;;;;;;7368624;19;722;-73
2023/01/27 04:39:40;;;;;;;;;;;;;;;;;;7368932;19;1652;-73
2023/01/27 04:42:08;;;;;;;;;;;;;;;;;;7365098;19;1838;-73
2023/01/27 04:44:36;;;;;;;;;;;;;;;;;;7367615;19;1354;-73
2023/01/27 04:47:05;;;;;;;;;;;;;;;;;;7367882;19;865;-74
2023/01/27 04:49:33;;;;;;;;;;;;;;;;;;7367598;19;1735;-73
2023/01/27 04:52:01;;;;;;;;;;;;;;;;;;7367749;19;870;-74
2023/01/27 04:54:29;;;;;;;;;;;;;;;;;;7365652;19;1279;-73
2023/01/27 04:56:57;;;;;;;;;;;;;;;;;;7367300;19;832;-73
2023/01/27 04:59:25;;;;;;;;;;;;;;;;;;7368138;19;1595;-73
2023/01/27 05:01:54;;;;;;;;;;;;;;;;;;7363163;19;1853;-73
2023/01/27 05:04:22;;;;;;;;;;;;;;;;;;7366862;19;1286;-73
2023/01/27 05:06:50;;;;;;;;;;;;;;;;;;7364903;19;787;-74
2023/01/27 05:09:18;;;;;;;;;;;;;;;;;;7366280;19;861;-74
2023/01/27 05:11:46;;;;;;;;;;;;;;;;;;7366559;19;808;-74
2023/01/27 05:14:15;;;;;;;;;;;;;;;;;;7371509;19;1093;-74
2023/01/27 05:16:43;;;;;;;;;;;;;;;;;;7365271;19;1639;-74
2023/01/27 05:19:11;;;;;;;;;;;;;;;;;;7366009;19;869;-73
2023/01/27 05:21:39;;;;;;;;;;;;;;;;;;7364717;19;1839;-72
2023/01/27 05:24:08;;;;;;;;;;;;;;;;;;7366624;19;872;-74
2023/01/27 05:26:36;;;;;;;;;;;;;;;;;;7362476;19;1357;-74
2023/01/27 05:29:04;;;;;;;;;;;;;;;;;;7366151;19;901;-74
2023/01/27 05:31:32;;;;;;;;;;;;;;;;;;7367101;19;822;-74
2023/01/27 05:34:01;;;;;;;;;;;;;;;;;;7366457;19;829;-74
2023/01/27 05:36:29;;;;;;;;;;;;;;;;;;7368705;19;1495;-73
2023/01/27 05:38:57;;;;;;;;;;;;;;;;;;7366276;19;877;-74
2023/01/27 05:41:25;;;;;;;;;;;;;;;;;;7364133;19;1853;-74
2023/01/27 05:43:53;;;;;;;;;;;;;;;;;;7366977;19;831;-74
2023/01/27 05:46:21;;;;;;;;;;;;;;;;;;7364897;19;1892;-73
2023/01/27 05:48:50;;;;;;;;;;;;;;;;;;7366016;19;774;-74
2023/01/27 05:51:18;;;;;;;;;;;;;;;;;;7364941;19;844;-74
2023/01/27 05:53:46;;;;;;;;;;;;;;;;;;7367085;19;818;-74
2023/01/27 05:56:14;;;;;;;;;;;;;;;;;;7363386;19;1522;-74
2023/01/27 05:58:42;;;;;;;;;;;;;;;;;;7368371;19;1586;-75
2023/01/27 06:01:10;;;;;;;;;;;;;;;;;;7364737;19;1841;-74
2023/01/27 06:03:39;;;;;;;;;;;;;;;;;;7365304;19;807;-73
2023/01/27 06:06:07;;;;;;;;;;;;;;;;;;7362904;19;1291;-74
2023/01/27 06:08:35;;;;;;;;;;;;;;;;;;7364958;19;803;-74
2023/01/27 06:11:03;;;;;;;;;;;;;;;;;;7363436;19;787;-74
2023/01/27 06:13:34;;;;;;;;;;;;;;;;;;7369621;19;807;-74
2023/01/27 06:16:02;;;;;;;;;;;;;;;;;;7369787;19;1391;-74
2023/01/27 06:18:31;;;;;;;;;;;;;;;;;;7369206;19;870;-75
2023/01/27 06:20:59;;;;;;;;;;;;;;;;;;7371193;19;1842;-74
2023/01/27 06:23:28;;;;;;;;;;;;;;;;;;7371536;19;820;-74
2023/01/27 06:25:56;;;;;;;;;;;;;;;;;;7370103;19;1287;-74
2023/01/27 06:28:24;;;;;;;;;;;;;;;;;;7374555;19;1588;-74
2023/01/27 06:30:53;;;;;;;;;;;;;;;;;;7371350;19;813;-74
2023/01/27 06:33:21;;;;;;;;;;;;;;;;;;7369624;19;856;-74
2023/01/27 06:35:49;;;;;;;;;;;;;;;;;;7368432;19;1283;-74
2023/01/27 06:38:17;;;;;;;;;;;;;;;;;;7374297;19;1537;-73
2023/01/27 06:40:45;;;;;;;;;;;;;;;;;;7370310;19;1838;-74
2023/01/27 06:43:14;;;;;;;;;;;;;;;;;;7369773;19;828;-74
2023/01/27 06:45:42;;;;;;;;;;;;;;;;;;7368448;19;1271;-74
2023/01/27 06:48:10;;;;;;;;;;;;;;;;;;7373432;19;1889;-74
2023/01/27 06:50:38;;;;;;;;;;;;;;;;;;7369926;19;1581;-74
2023/01/27 06:53:06;;;;;;;;;;;;;;;;;;7371596;19;792;-74
2023/01/27 06:55:34;;;;;;;;;;;;;;;;;;7370075;19;1267;-75
2023/01/27 06:58:03;;;;;;;;;;;;;;;;;;7370434;19;870;-75
2023/01/27 07:00:31;;;;;;;;;;;;;;;;;;7371160;19;882;-74
2023/01/27 07:02:59;;;;;;;;;;;;;;;;;;7367680;19;1833;-74
2023/01/27 07:05:27;;;;;;;;;;;;;;;;;;7369831;19;1275;-74
2023/01/27 07:07:55;;;;;;;;;;;;;;;;;;7374510;19;1581;-74
2023/01/27 07:10:24;;;;;;;;;;;;;;;;;;7370951;19;787;-74
2023/01/27 07:12:52;;;;;;;;;;;;;;;;;;7371805;19;788;-74
2023/01/27 07:15:20;;;;;;;;;;;;;;;;;;7371723;19;1884;-75
2023/01/27 07:17:48;;;;;;;;;;;;;;;;;;7370368;19;855;-74
2023/01/27 07:20:16;;;;;;;;;;;;;;;;;;7369620;19;796;-75
2023/01/27 07:22:45;;;;;;;;;;;;;;;;;;7368448;19;1944;-75
2023/01/27 07:25:13;;;;;;;;;;;;;;;;;;7368504;19;1267;-75
2023/01/27 07:27:41;;;;;;;;;;;;;;;;;;7370277;19;842;-74
2023/01/27 07:30:09;;;;;;;;;;;;;;;;;;7370981;19;843;-74
2023/01/27 07:32:37;;;;;;;;;;;;;;;;;;7370584;19;799;-74
2023/01/27 07:35:05;;;;;;;;;;;;;;;;;;7368558;19;1243;-74
2023/01/27 07:37:34;;;;;;;;;;;;;;;;;;7370723;19;847;-73
2023/01/27 07:40:02;;;;;;;;;;;;;;;;;;7374612;19;1538;-74
2023/01/27 07:42:30;;;;;;;;;;;;;;;;;;7369110;19;1854;-74
2023/01/27 07:44:59;;;;;;;;;;;;;;;;;;7373024;19;1303;-74
2023/01/27 07:47:27;;;;;;;;;;;;;;;;;;7375606;19;1819;-74
2023/01/27 07:49:55;;;;;;;;;;;;;;;;;;7368270;19;827;-72
2023/01/27 07:52:23;;;;;;;;;;;;;;;;;;7370074;19;840;-73
2023/01/27 07:54:51;;;;;;;;;;;;;;;;;;7371501;19;1247;-77
2023/01/27 07:57:20;;;;;;;;;;;;;;;;;;7370699;19;799;-74
2023/01/27 07:59:48;;;;;;;;;;;;;;;;;;7370850;19;1617;-74
2023/01/27 08:02:16;;;;;;;;;;;;;;;;;;7369615;19;2231;-74
2023/01/27 08:04:44;;;;;;;;;;;;;;;;;;7369657;19;1278;-74
2023/01/27 08:07:12;;;;;;;;;;;;;;;;;;7371494;19;817;-73
2023/01/27 08:09:41;;;;;;;;;;;;;;;;;;7370673;19;787;-74
2023/01/27 08:12:09;;;;;;;;;;;;;;;;;;7372529;19;1904;-74
2023/01/27 08:14:37;;;;;;;;;;;;;;;;;;7370026;19;1267;-73
2023/01/27 08:17:05;;;;;;;;;;;;;;;;;;7370122;19;798;-74
2023/01/27 08:19:33;;;;;;;;;;;;;;;;;;7369475;19;759;-74
2023/01/27 08:22:01;;;;;;;;;;;;;;;;;;7366618;19;1842;-74
2023/01/27 08:24:30;;;;;;;;;;;;;;;;;;7368173;19;1263;-74
2023/01/27 08:26:58;;;;;;;;;;;;;;;;;;7366873;19;789;-73
2023/01/27 08:29:28;;;;;;;;;;;;;;;;;;7368880;19;819;-74
2023/01/27 08:31:56;;;;;;;;;;;;;;;;;;7368845;19;812;-73
2023/01/27 08:34:24;;;;;;;;;;;;;;;;;;7368204;19;1243;-75
2023/01/27 08:36:52;;;;;;;;;;;;;;;;;;7368087;19;796;-73
2023/01/27 08:39:21;;;;;;;;;;;;;;;;;;7370135;19;1765;-73
2023/01/27 08:41:49;;;;;;;;;;;;;;;;;;7366810;19;1854;-73
2023/01/27 08:44:17;;;;;;;;;;;;;;;;;;7369176;19;874;-74
2023/01/27 08:46:45;;;;;;;;;;;;;;;;;;7366001;19;1391;-73
2023/01/27 08:49:13;;;;;;;;;;;;;;;;;;7367950;19;796;-71
2023/01/27 08:51:42;;;;;;;;;;;;;;;;;;7369375;19;916;-73
2023/01/27 08:54:10;;;;;;;;;;;;;;;;;;7368630;19;799;-73
2023/01/27 08:56:38;;;;;;;;;;;;;;;;;;7365825;19;1277;-73
2023/01/27 08:59:06;;;;;;;;;;;;;;;;;;7365922;19;835;-73
2023/01/27 09:01:34;;;;;;;;;;;;;;;;;;7366971;19;1843;-73
2023/01/27 09:04:02;;;;;;;;;;;;;;;;;;7366776;19;784;-73
2023/01/27 09:06:31;;;;;;;;;;;;;;;;;;7367793;19;1669;-74
2023/01/27 09:09:11;;;;;;;;;;;;;;;;;;7366474;19;811;-71
2023/01/27 09:11:39;;;;;;;;;;;;;;;;;;7366255;19;823;-73
2023/01/27 09:14:07;;;;;;;;;;;;;;;;;;7365501;19;816;-72
2023/01/27 09:16:35;;;;;;;;;;;;;;;;;;7364627;19;1314;-73
2023/01/27 09:19:04;;;;;;;;;;;;;;;;;;7367625;19;1590;-73
2023/01/27 09:21:32;;;;;;;;;;;;;;;;;;7365084;19;1839;-73
2023/01/27 09:24:00;;;;;;;;;;;;;;;;;;7366363;19;798;-73
2023/01/27 09:26:28;;;;;;;;;;;;;;;;;;7364097;19;1271;-72
2023/01/27 09:28:56;;;;;;;;;;;;;;;;;;7365608;19;806;-73
2023/01/27 09:31:24;;;;;;;;;;;;;;;;;;7365825;19;855;-72
2023/01/27 09:33:53;;;;;;;;;;;;;;;;;;7365495;19;791;-73
2023/01/27 09:36:21;;;;;;;;;;;;;;;;;;7363132;19;1343;-71
2023/01/27 09:38:49;;;;;;;;;;;;;;;;;;7365759;19;953;-72
2023/01/27 09:41:17;;;;;;;;;;;;;;;;;;7369349;19;866;-73
2023/01/27 09:43:45;;;;;;;;;;;;;;;;;;7365021;19;1831;-73
2023/01/27 09:46:14;;;;;;;;;;;;;;;;;;7367438;19;1283;-73
2023/01/27 09:48:42;;;;;;;;;;;;;;;;;;7375019;19;850;-73
2023/01/27 09:51:10;;;;;;;;;;;;;;;;;;7376352;19;1595;-73
2023/01/27 09:53:38;;;;;;;;;;;;;;;;;;7374464;19;828;-73
2023/01/27 09:56:06;;;;;;;;;;;;;;;;;;7372399;19;1333;-73
2023/01/27 09:58:35;;;;;;;;;;;;;;;;;;7374822;19;831;-73
2023/01/27 10:01:03;;;;;;;;;;;;;;;;;;7374002;19;1542;-73
2023/01/27 10:03:31;;;;;;;;;;;;;;;;;;7370337;19;1860;-75
2023/01/27 10:05:59;;;;;;;;;;;;;;;;;;7372230;19;1347;-74
2023/01/27 10:08:27;;;;;;;;;;;;;;;;;;7373201;19;798;-75
2023/01/27 10:10:55;;;;;;;;;;;;;;;;;;7372398;19;804;-73
2023/01/27 10:13:24;;;;;;;;;;;;;;;;;;7376049;19;834;-74
2023/01/27 10:15:52;;;;;;;;;;;;;;;;;;7372797;19;1370;-73
2023/01/27 10:18:20;;;;;;;;;;;;;;;;;;7372519;19;842;-73
2023/01/27 10:20:50;;;;;;;;;;;;;;;;;;7371256;19;1138;-73
2023/01/27 10:23:18;;;;;;;;;;;;;;;;;;7371884;19;1876;-73
2023/01/27 10:25:46;;;;;;;;;;;;;;;;;;7370154;19;1315;-74
2023/01/27 10:28:14;;;;;;;;;;;;;;;;;;7372220;19;789;-73
2023/01/27 10:30:42;;;;;;;;;;;;;;;;;;7372293;19;771;-74
2023/01/27 10:33:10;;;;;;;;;;;;;;;;;;7371643;19;866;-74
2023/01/27 10:35:39;;;;;;;;;;;;;;;;;;7375086;19;1555;-74
2023/01/27 10:38:07;;;;;;;;;;;;;;;;;;7375315;19;1487;-73
2023/01/27 10:40:35;;;;;;;;;;;;;;;;;;7371748;19;744;-73
2023/01/27 10:43:03;;;;;;;;;;;;;;;;;;7374746;19;1845;-74
2023/01/27 10:45:31;;;;;;;;;;;;;;;;;;7372690;19;1290;-72
2023/01/27 10:47:59;;;;;;;;;;;;;;;;;;7371017;19;803;-72
2023/01/27 10:50:29;;;;;;;;;;;;;;;;;;7371718;19;802;-72
2023/01/27 10:52:57;;;;;;;;;;;;;;;;;;7370378;19;1114;-73
2023/01/27 10:55:25;;;;;;;;;;;;;;;;;;7370356;19;1330;-74
2023/01/27 10:57:53;;;;;;;;;;;;;;;;;;7368536;19;829;-75
2023/01/27 11:00:21;;;;;;;;;;;;;;;;;;7372674;19;941;-75
2023/01/27 11:02:50;;;;;;;;;;;;;;;;;;7372154;19;1866;-76
2023/01/27 11:05:18;;;;;;;;;;;;;;;;;;7370976;19;1302;-75
2023/01/27 11:07:46;;;;;;;;;;;;;;;;;;7372900;19;1647;-73
2023/01/27 11:10:14;;;;;;;;;;;;;;;;;;7371756;19;1720;-74
2023/01/27 11:12:42;;;;;;;;;;;;;;;;;;7369181;19;1427;-73
2023/01/27 11:15:11;;;;;;;;;;;;;;;;;;7374198;19;1487;-74
2023/01/27 11:17:39;;;;;;;;;;;;;;;;;;7371241;19;834;-77
2023/01/27 11:20:10;;;;;;;;;;;;;;;;;;7372158;19;862;-75
2023/01/27 11:22:38;;;;;;;;;;;;;;;;;;7368216;19;1884;-76
2023/01/27 11:25:06;;;;;;;;;;;;;;;;;;7370552;19;1287;-72
2023/01/27 11:27:34;;;;;;;;;;;;;;;;;;7369699;19;1543;-73
2023/01/27 11:30:03;;;;;;;;;;;;;;;;;;7371798;19;1835;-71
2023/01/27 11:32:31;;;;;;;;;;;;;;;;;;7370797;19;889;-72
2023/01/27 11:34:59;;;;;;;;;;;;;;;;;;7371846;19;1703;-72
2023/01/27 11:37:27;;;;;;;;;;;;;;;;;;7374416;19;2021;-71
2023/01/27 11:39:55;;;;;;;;;;;;;;;;;;7373418;19;1769;-71
2023/01/27 11:42:23;;;;;;;;;;;;;;;;;;7371010;19;1842;-71
2023/01/27 11:44:52;;;;;;;;;;;;;;;;;;7369539;19;1292;-72
2023/01/27 11:47:20;;;;;;;;;;;;;;;;;;7370213;19;808;-72
2023/01/27 11:49:48;;;;;;;;;;;;;;;;;;7369618;19;827;-71
2023/01/27 11:52:16;;;;;;;;;;;;;;;;;;7369940;19;851;-72
2023/01/27 11:54:44;;;;;;;;;;;;;;;;;;7369113;19;1330;-71
2023/01/27 11:57:13;;;;;;;;;;;;;;;;;;7371403;19;1949;-71
2023/01/27 11:59:41;;;;;;;;;;;;;;;;;;7372154;19;1532;-72
2023/01/27 12:02:09;;;;;;;;;;;;;;;;;;7369755;19;1838;-71
2023/01/27 12:04:37;;;;;;;;;;;;;;;;;;7369325;19;1294;-71
2023/01/27 12:07:05;;;;;;;;;;;;;;;;;;7369997;19;862;-71
2023/01/27 12:09:33;;;;;;;;;;;;;;;;;;7366539;19;710;-71
2023/01/27 12:12:02;;;;;;;;;;;;;;;;;;7369510;19;834;-71
2023/01/27 12:14:30;;;;;;;;;;;;;;;;;;7368902;19;1228;-71
2023/01/27 12:16:58;;;;;;;;;;;;;;;;;;7369152;19;799;-71
2023/01/27 12:19:26;;;;;;;;;;;;;;;;;;7368135;19;803;-71
2023/01/27 12:21:54;;;;;;;;;;;;;;;;;;7369163;19;785;-71
2023/01/27 12:24:23;;;;;;;;;;;;;;;;;;7369796;19;1886;-71
2023/01/27 12:26:51;;;;;;;;;;;;;;;;;;7374740;19;1846;-71
2023/01/27 12:29:19;;;;;;;;;;;;;;;;;;7368944;19;862;-71
2023/01/27 12:31:47;;;;;;;;;;;;;;;;;;7368962;19;837;-71
2023/01/27 12:34:15;;;;;;;;;;;;;;;;;;7367335;19;1189;-72
2023/01/27 12:36:44;;;;;;;;;;;;;;;;;;7365951;19;1367;-72
2023/01/27 12:39:12;;;;;;;;;;;;;;;;;;7368376;19;1649;-72
2023/01/27 12:41:40;;;;;;;;;;;;;;;;;;7373178;19;1768;-72
2023/01/27 12:44:08;;;;;;;;;;;;;;;;;;7370966;19;2041;-71
2023/01/27 12:46:37;;;;;;;;;;;;;;;;;;7366664;19;1309;-72
2023/01/27 12:49:05;;;;;;;;;;;;;;;;;;7368771;19;809;-72
2023/01/27 12:51:34;;;;;;;;;;;;;;;;;;7370486;19;871;-72
2023/01/27 12:54:02;;;;;;;;;;;;;;;;;;7370720;19;1878;-71
2023/01/27 12:56:30;;;;;;;;;;;;;;;;;;7364710;19;1324;-71
2023/01/27 12:58:58;;;;;;;;;;;;;;;;;;7367260;19;854;-71
2023/01/27 13:01:26;;;;;;;;;;;;;;;;;;7367290;19;821;-71
2023/01/27 13:03:55;;;;;;;;;;;;;;;;;;7365060;19;1853;-69
2023/01/27 13:06:23;;;;;;;;;;;;;;;;;;7365106;19;1357;-71
2023/01/27 13:08:52;;;;;;;;;;;;;;;;;;7366897;19;866;-70
2023/01/27 13:11:20;;;;;;;;;;;;;;;;;;7370663;19;1937;-72
2023/01/27 13:13:48;;;;;;;;;;;;;;;;;;7370662;19;1842;-72
2023/01/27 13:16:16;;;;;;;;;;;;;;;;;;7365331;19;1322;-72
2023/01/27 13:18:44;;;;;;;;;;;;;;;;;;7367207;19;801;-71
2023/01/27 13:21:13;;;;;;;;;;;;;;;;;;7367358;19;862;-70
2023/01/27 13:23:41;;;;;;;;;;;;;;;;;;7365273;19;1853;-71
2023/01/27 13:26:10;;;;;;;;;;;;;;;;;;7365126;19;1262;-71
2023/01/27 13:28:38;;;;;;;;;;;;;;;;;;7366666;19;856;-71
2023/01/27 13:31:07;;;;;;;;;;;;;;;;;;7368187;19;864;-71
2023/01/27 13:33:36;;;;;;;;;;;;;;;;;;7367158;19;890;-71
2023/01/27 13:36:04;;;;;;;;;;;;;;;;;;7363758;19;1365;-71
2023/01/27 13:38:32;;;;;;;;;;;;;;;;;;7364720;19;804;-71
2023/01/27 13:41:00;;;;;;;;;;;;;;;;;;7367663;19;806;-72
2023/01/27 13:43:29;;;;;;;;;;;;;;;;;;7365389;19;1841;-71
2023/01/27 13:45:57;;;;;;;;;;;;;;;;;;7364592;19;1262;-71
2023/01/27 13:48:25;;;;;;;;;;;;;;;;;;7365431;19;787;-72
2023/01/27 13:50:53;;;;;;;;;;;;;;;;;;7365686;19;870;-71
2023/01/27 13:53:21;;;;;;;;;;;;;;;;;;7365569;19;848;-71
2023/01/27 13:55:50;;;;;;;;;;;;;;;;;;7364695;19;1212;-72
2023/01/27 13:58:18;;;;;;;;;;;;;;;;;;7366032;19;874;-71
2023/01/27 14:00:46;;;;;;;;;;;;;;;;;;7366435;19;838;-71
2023/01/27 14:03:14;;;;;;;;;;;;;;;;;;7365723;19;1845;-71
2023/01/27 14:05:42;;;;;;;;;;;;;;;;;;7364591;19;1282;-71
2023/01/27 14:08:12;;;;;;;;;;;;;;;;;;7366139;19;850;-72
2023/01/27 14:10:40;;;;;;;;;;;;;;;;;;7364983;19;816;-71
2023/01/27 14:13:08;;;;;;;;;;;;;;;;;;7366152;19;875;-71
2023/01/27 14:15:36;;;;;;;;;;;;;;;;;;7364234;19;1361;-71
2023/01/27 14:18:05;;;;;;;;;;;;;;;;;;7365740;19;796;-71
2023/01/27 14:20:33;;;;;;;;;;;;;;;;;;7365908;19;804;-71
2023/01/27 14:23:01;;;;;;;;;;;;;;;;;;7365369;19;1849;-71
2023/01/27 14:25:29;;;;;;;;;;;;;;;;;;7364757;19;1278;-71
2023/01/27 14:27:57;;;;;;;;;;;;;;;;;;7364790;19;821;-71
2023/01/27 14:30:26;;;;;;;;;;;;;;;;;;7364924;19;796;-71
2023/01/27 14:32:54;;;;;;;;;;;;;;;;;;7366702;19;771;-71
2023/01/27 14:35:22;;;;;;;;;;;;;;;;;;7371731;19;1338;-71
2023/01/27 14:37:51;;;;;;;;;;;;;;;;;;7369100;19;804;-71
2023/01/27 14:40:19;;;;;;;;;;;;;;;;;;7372363;19;942;-72
2023/01/27 14:42:47;;;;;;;;;;;;;;;;;;7371452;19;882;-71
2023/01/27 14:45:16;;;;;;;;;;;;;;;;;;7370849;19;1831;-71
2023/01/27 14:47:44;;;;;;;;;;;;;;;;;;7375086;19;1961;-71
2023/01/27 14:50:12;;;;;;;;;;;;;;;;;;7375110;19;1781;-71
2023/01/27 14:52:41;;;;;;;;;;;;;;;;;;7371956;19;881;-72
2023/01/27 14:55:09;;;;;;;;;;;;;;;;;;7370394;19;1333;-71
2023/01/27 14:57:37;;;;;;;;;;;;;;;;;;7368941;19;815;-71
2023/01/27 15:00:05;;;;;;;;;;;;;;;;;;7370761;19;826;-71
2023/01/27 15:02:33;;;;;;;;;;;;;;;;;;7375478;19;1545;-73
2023/01/27 15:05:02;;;;;;;;;;;;;;;;;;7371859;19;1983;-70
2023/01/27 15:07:30;;;;;;;;;;;;;;;;;;7370903;19;767;-71
2023/01/27 15:09:58;;;;;;;;;;;;;;;;;;7369891;19;857;-71
2023/01/27 15:12:26;;;;;;;;;;;;;;;;;;7369890;19;861;-70
2023/01/27 15:14:56;;;;;;;;;;;;;;;;;;7369916;19;1271;-71
2023/01/27 15:17:24;;;;;;;;;;;;;;;;;;7369591;19;674;-70
2023/01/27 15:19:52;;;;;;;;;;;;;;;;;;7370083;19;868;-69
2023/01/27 15:22:29;;;;;;;;;;;;;;;;;;7367416;19;1155;-69
2023/01/27 15:24:58;;;;;;;;;;;;;;;;;;7368412;19;1857;-69
2023/01/27 15:27:26;;;;;;;;;;;;;;;;;;7370055;19;799;-70
2023/01/27 15:29:55;;;;;;;;;;;;;;;;;;7369713;19;783;-71
2023/01/27 15:32:23;;;;;;;;;;;;;;;;;;7374165;19;1645;-70
2023/01/27 15:34:51;;;;;;;;;;;;;;;;;;7369626;19;1271;-71
2023/01/27 15:37:19;;;;;;;;;;;;;;;;;;7369464;19;757;-71
2023/01/27 15:39:47;;;;;;;;;;;;;;;;;;7368625;19;768;-71
2023/01/27 15:42:16;;;;;;;;;;;;;;;;;;7368679;19;1874;-71
2023/01/27 15:44:44;;;;;;;;;;;;;;;;;;7366116;19;1868;-71
2023/01/27 15:47:12;;;;;;;;;;;;;;;;;;7368598;19;797;-70
2023/01/27 15:49:40;;;;;;;;;;;;;;;;;;7368594;19;796;-70
2023/01/27 15:52:09;;;;;;;;;;;;;;;;;;7368837;19;804;-70
2023/01/27 15:54:37;;;;;;;;;;;;;;;;;;7370097;19;1282;-70
2023/01/27 15:57:05;;;;;;;;;;;;;;;;;;7370486;19;849;-70
2023/01/27 15:59:33;;;;;;;;;;;;;;;;;;7370013;19;1822;-70
2023/01/27 16:02:01;;;;;;;;;;;;;;;;;;7367717;19;874;-70
2023/01/27 16:04:30;;;;;;;;;;;;;;;;;;7366918;19;1841;-71
2023/01/27 16:07:00;;;;;;;;;;;;;;;;;;7368456;19;943;-71
2023/01/27 16:09:29;;;;;;;;;;;;;;;;;;7367467;19;699;-71
2023/01/27 16:11:57;;;;;;;;;;;;;;;;;;7368097;19;870;-71
2023/01/27 16:14:25;;;;;;;;;;;;;;;;;;7367464;19;1346;-70
2023/01/27 16:16:53;;;;;;;;;;;;;;;;;;7370780;19;1835;-70
2023/01/27 16:19:21;;;;;;;;;;;;;;;;;;7367527;19;842;-71
2023/01/27 16:21:49;;;;;;;;;;;;;;;;;;7367663;19;859;-70
2023/01/27 16:24:17;;;;;;;;;;;;;;;;;;7365061;19;1833;-70
2023/01/27 16:26:46;;;;;;;;;;;;;;;;;;7363419;19;1630;-71
2023/01/27 16:29:14;;;;;;;;;;;;;;;;;;7370126;19;1832;-71
2023/01/27 16:31:42;;;;;;;;;;;;;;;;;;7367714;19;787;-70
2023/01/27 16:34:10;;;;;;;;;;;;;;;;;;7366887;19;795;-70
2023/01/27 16:36:38;;;;;;;;;;;;;;;;;;7366809;19;1754;-70
2023/01/27 16:39:07;;;;;;;;;;;;;;;;;;7366834;19;819;-71
2023/01/27 16:41:36;;;;;;;;;;;;;;;;;;7368053;19;841;-71
2023/01/27 16:44:04;;;;;;;;;;;;;;;;;;7367960;19;1856;-71
2023/01/27 16:46:32;;;;;;;;;;;;;;;;;;7364876;19;1275;-71
2023/01/27 16:49:03;;;;;;;;;;;;;;;;;;7366529;19;783;-71
2023/01/27 16:51:31;;;;;;;;;;;;;;;;;;7368060;19;724;-71
2023/01/27 16:53:59;;;;;;;;;;;;;;;;;;7367549;19;820;-71
2023/01/27 16:56:28;;;;;;;;;;;;;;;;;;7367066;19;1932;-72
2023/01/27 16:58:56;;;;;;;;;;;;;;;;;;7366805;19;814;-71
2023/01/27 17:01:24;;;;;;;;;;;;;;;;;;7367732;19;777;-72
2023/01/27 17:03:52;;;;;;;;;;;;;;;;;;7367110;19;1842;-71
2023/01/27 17:06:21;;;;;;;;;;;;;;;;;;7364113;19;1287;-71
2023/01/27 17:08:49;;;;;;;;;;;;;;;;;;7366485;19;806;-71
2023/01/27 17:11:17;;;;;;;;;;;;;;;;;;7369293;19;1847;-71
2023/01/27 17:13:47;;;;;;;;;;;;;;;;;;7367284;19;769;-72
2023/01/27 17:16:15;;;;;;;;;;;;;;;;;;7364847;19;1271;-71
2023/01/27 17:18:43;;;;;;;;;;;;;;;;;;7366517;19;839;-71
2023/01/27 17:21:11;;;;;;;;;;;;;;;;;;7367235;19;959;-71
2023/01/27 17:23:39;;;;;;;;;;;;;;;;;;7367111;19;862;-71
2023/01/27 17:26:09;;;;;;;;;;;;;;;;;;7364383;19;1845;-70
2023/01/27 17:28:37;;;;;;;;;;;;;;;;;;7366924;19;874;-71
2023/01/27 17:31:06;;;;;;;;;;;;;;;;;;7367795;19;856;-72
2023/01/27 17:33:34;;;;;;;;;;;;;;;;;;7367202;19;806;-71
2023/01/27 17:36:02;;;;;;;;;;;;;;;;;;7365034;19;1266;-72
2023/01/27 17:38:30;;;;;;;;;;;;;;;;;;7364983;19;1830;-72
2023/01/27 17:40:58;;;;;;;;;;;;;;;;;;7369469;19;1935;-71
2023/01/27 17:43:26;;;;;;;;;;;;;;;;;;7365525;19;824;-71
2023/01/27 17:45:54;;;;;;;;;;;;;;;;;;7364000;19;1849;-70
2023/01/27 17:48:23;;;;;;;;;;;;;;;;;;7364898;19;855;-71
2023/01/27 17:50:51;;;;;;;;;;;;;;;;;;7366418;19;821;-71